sensor_id;sensor_type;location;lat;lon;timestamp;temperature;humidity
27619;DHT22;15039;50.830;4.730;2024-03-25T00:01:13;4.70;99.90
27619;DHT22;15039;50.830;4.730;2024-03-25T00:06:14;4.60;99.90
27619;DHT22;15039;50.830;4.730;2024-03-25T00:08:40;4.70;99.90
27619;DHT22;15039;50.830;4.730;2024-03-25T00:11:05;4.60;99.90
27619;DHT22;15039;50.830;4.730;2024-03-25T00:13:31;4.70;99.90
27619;DHT22;15039;50.830;4.730;2024-03-25T00:15:56;4.70;99.90
27619;DHT22;15039;50.830;4.730;2024-03-25T00:18:22;4.70;99.90
27619;DHT22;15039;50.830;4.730;2024-03-25T00:20:47;4.70;99.90
27619;DHT22;15039;50.830;4.730;2024-03-25T00:23:13;4.70;99.90
27619;DHT22;15039;50.830;4.730;2024-03-25T00:25:38;4.70;99.90
27619;DHT22;15039;50.830;4.730;2024-03-25T00:28:04;4.60;99.90
27619;DHT22;15039;50.830;4.730;2024-03-25T00:30:29;4.60;99.90
27619;DHT22;15039;50.830;4.730;2024-03-25T00:32:56;4.60;99.90
27619;DHT22;15039;50.830;4.730;2024-03-25T00:35:22;4.60;99.90
27619;DHT22;15039;50.830;4.730;2024-03-25T00:37:48;4.60;99.90
27619;DHT22;15039;50.830;4.730;2024-03-25T00:40:14;4.60;99.90
27619;DHT22;15039;50.830;4.730;2024-03-25T00:42:40;4.60;99.90
27619;DHT22;15039;50.830;4.730;2024-03-25T00:45:05;4.60;99.90
27619;DHT22;15039;50.830;4.730;2024-03-25T00:47:32;4.60;99.90
27619;DHT22;15039;50.830;4.730;2024-03-25T00:49:58;4.60;99.90
27619;DHT22;15039;50.830;4.730;2024-03-25T00:52:24;4.60;99.90
27619;DHT22;15039;50.830;4.730;2024-03-25T00:54:49;4.60;99.90
27619;DHT22;15039;50.830;4.730;2024-03-25T00:57:15;4.50;99.90
27619;DHT22;15039;50.830;4.730;2024-03-25T00:59:41;4.50;99.90
27619;DHT22;15039;50.830;4.730;2024-03-25T01:02:06;4.50;99.90
27619;DHT22;15039;50.830;4.730;2024-03-25T01:04:33;4.50;99.90
27619;DHT22;15039;50.830;4.730;2024-03-25T01:06:59;4.50;99.90
27619;DHT22;15039;50.830;4.730;2024-03-25T01:09:27;4.40;99.90
27619;DHT22;15039;50.830;4.730;2024-03-25T01:15:16;4.40;99.90
27619;DHT22;15039;50.830;4.730;2024-03-25T01:17:42;4.30;99.90
27619;DHT22;15039;50.830;4.730;2024-03-25T01:20:07;4.30;99.90
27619;DHT22;15039;50.830;4.730;2024-03-25T01:22:49;4.30;99.90
27619;DHT22;15039;50.830;4.730;2024-03-25T01:25:14;4.20;99.90
27619;DHT22;15039;50.830;4.730;2024-03-25T01:27:40;4.20;99.90
27619;DHT22;15039;50.830;4.730;2024-03-25T01:30:06;4.20;99.90
27619;DHT22;15039;50.830;4.730;2024-03-25T01:32:32;4.20;99.90
27619;DHT22;15039;50.830;4.730;2024-03-25T01:34:58;4.20;99.90
27619;DHT22;15039;50.830;4.730;2024-03-25T01:37:23;4.10;99.90
27619;DHT22;15039;50.830;4.730;2024-03-25T01:39:49;4.10;99.90
27619;DHT22;15039;50.830;4.730;2024-03-25T01:42:14;4.10;99.90
27619;DHT22;15039;50.830;4.730;2024-03-25T01:44:40;4.10;99.90
27619;DHT22;15039;50.830;4.730;2024-03-25T01:50:15;4.10;99.90
27619;DHT22;15039;50.830;4.730;2024-03-25T01:52:41;4.10;99.90
27619;DHT22;15039;50.830;4.730;2024-03-25T01:55:21;4.00;99.90
27619;DHT22;15039;50.830;4.730;2024-03-25T01:57:47;4.00;99.90
27619;DHT22;15039;50.830;4.730;2024-03-25T02:00:13;4.00;99.90
27619;DHT22;15039;50.830;4.730;2024-03-25T02:05:45;4.20;99.90
27619;DHT22;15039;50.830;4.730;2024-03-25T02:08:10;4.20;99.90
27619;DHT22;15039;50.830;4.730;2024-03-25T02:10:37;4.20;99.90
27619;DHT22;15039;50.830;4.730;2024-03-25T02:13:03;4.20;99.90
27619;DHT22;15039;50.830;4.730;2024-03-25T02:15:28;4.30;99.90
27619;DHT22;15039;50.830;4.730;2024-03-25T02:17:54;4.30;99.90
27619;DHT22;15039;50.830;4.730;2024-03-25T02:20:20;4.20;99.90
27619;DHT22;15039;50.830;4.730;2024-03-25T02:22:45;4.30;99.90
27619;DHT22;15039;50.830;4.730;2024-03-25T02:25:11;4.20;99.90
27619;DHT22;15039;50.830;4.730;2024-03-25T02:27:38;4.20;99.90
27619;DHT22;15039;50.830;4.730;2024-03-25T02:30:07;4.20;99.90
27619;DHT22;15039;50.830;4.730;2024-03-25T02:32:33;4.20;99.90
27619;DHT22;15039;50.830;4.730;2024-03-25T02:34:59;4.20;99.90
27619;DHT22;15039;50.830;4.730;2024-03-25T02:37:26;4.30;99.90
27619;DHT22;15039;50.830;4.730;2024-03-25T02:39:57;4.30;99.90
27619;DHT22;15039;50.830;4.730;2024-03-25T02:42:23;4.30;99.90
27619;DHT22;15039;50.830;4.730;2024-03-25T02:44:49;4.30;99.90
27619;DHT22;15039;50.830;4.730;2024-03-25T02:47:14;4.30;99.90
27619;DHT22;15039;50.830;4.730;2024-03-25T02:49:40;4.30;99.90
27619;DHT22;15039;50.830;4.730;2024-03-25T02:52:06;4.30;99.90
27619;DHT22;15039;50.830;4.730;2024-03-25T02:54:31;4.30;99.90
27619;DHT22;15039;50.830;4.730;2024-03-25T02:56:57;4.30;99.90
27619;DHT22;15039;50.830;4.730;2024-03-25T02:59:22;4.30;99.90
27619;DHT22;15039;50.830;4.730;2024-03-25T03:01:48;4.30;99.90
27619;DHT22;15039;50.830;4.730;2024-03-25T03:04:13;4.30;99.90
27619;DHT22;15039;50.830;4.730;2024-03-25T03:06:39;4.30;99.90
27619;DHT22;15039;50.830;4.730;2024-03-25T03:09:04;4.30;99.90
27619;DHT22;15039;50.830;4.730;2024-03-25T03:11:30;4.40;99.90
27619;DHT22;15039;50.830;4.730;2024-03-25T03:13:56;4.30;99.90
27619;DHT22;15039;50.830;4.730;2024-03-25T03:16:21;4.30;99.90
27619;DHT22;15039;50.830;4.730;2024-03-25T03:18:47;4.30;99.90
27619;DHT22;15039;50.830;4.730;2024-03-25T03:21:12;4.30;99.90
27619;DHT22;15039;50.830;4.730;2024-03-25T03:23:38;4.40;99.90
27619;DHT22;15039;50.830;4.730;2024-03-25T03:26:03;4.40;99.90
27619;DHT22;15039;50.830;4.730;2024-03-25T03:28:29;4.30;99.90
27619;DHT22;15039;50.830;4.730;2024-03-25T03:30:54;4.40;99.90
27619;DHT22;15039;50.830;4.730;2024-03-25T03:33:20;4.30;99.90
27619;DHT22;15039;50.830;4.730;2024-03-25T03:35:46;4.30;99.90
27619;DHT22;15039;50.830;4.730;2024-03-25T03:38:12;4.30;99.90
27619;DHT22;15039;50.830;4.730;2024-03-25T03:40:37;4.30;99.90
27619;DHT22;15039;50.830;4.730;2024-03-25T03:43:03;4.20;99.90
27619;DHT22;15039;50.830;4.730;2024-03-25T03:45:32;4.20;99.90
27619;DHT22;15039;50.830;4.730;2024-03-25T03:47:57;4.20;99.90
27619;DHT22;15039;50.830;4.730;2024-03-25T03:50:23;4.20;99.90
27619;DHT22;15039;50.830;4.730;2024-03-25T03:52:48;4.20;99.90
27619;DHT22;15039;50.830;4.730;2024-03-25T03:55:14;4.20;99.90
27619;DHT22;15039;50.830;4.730;2024-03-25T03:57:39;4.20;99.90
27619;DHT22;15039;50.830;4.730;2024-03-25T04:00:05;4.20;99.90
27619;DHT22;15039;50.830;4.730;2024-03-25T04:02:31;4.20;99.90
27619;DHT22;15039;50.830;4.730;2024-03-25T04:04:56;4.30;99.90
27619;DHT22;15039;50.830;4.730;2024-03-25T04:07:22;4.30;99.90
27619;DHT22;15039;50.830;4.730;2024-03-25T04:09:53;4.30;99.90
27619;DHT22;15039;50.830;4.730;2024-03-25T04:12:19;4.50;99.90
27619;DHT22;15039;50.830;4.730;2024-03-25T04:14:47;4.50;99.90
27619;DHT22;15039;50.830;4.730;2024-03-25T04:17:14;4.40;99.90
27619;DHT22;15039;50.830;4.730;2024-03-25T04:19:40;4.50;99.90
27619;DHT22;15039;50.830;4.730;2024-03-25T04:22:05;4.40;99.90
27619;DHT22;15039;50.830;4.730;2024-03-25T04:24:32;4.40;99.90
27619;DHT22;15039;50.830;4.730;2024-03-25T04:26:59;4.40;99.90
27619;DHT22;15039;50.830;4.730;2024-03-25T04:29:25;4.40;99.90
27619;DHT22;15039;50.830;4.730;2024-03-25T04:31:50;4.50;99.90
27619;DHT22;15039;50.830;4.730;2024-03-25T04:34:16;4.50;99.90
27619;DHT22;15039;50.830;4.730;2024-03-25T04:36:42;4.50;99.90
27619;DHT22;15039;50.830;4.730;2024-03-25T04:39:07;4.50;99.90
27619;DHT22;15039;50.830;4.730;2024-03-25T04:41:33;4.50;99.90
27619;DHT22;15039;50.830;4.730;2024-03-25T04:43:59;4.50;99.90
27619;DHT22;15039;50.830;4.730;2024-03-25T04:46:24;4.60;99.90
27619;DHT22;15039;50.830;4.730;2024-03-25T04:48:50;4.60;99.90
27619;DHT22;15039;50.830;4.730;2024-03-25T04:51:15;4.60;99.90
27619;DHT22;15039;50.830;4.730;2024-03-25T04:53:41;4.60;99.90
27619;DHT22;15039;50.830;4.730;2024-03-25T04:56:06;4.60;99.90
27619;DHT22;15039;50.830;4.730;2024-03-25T04:58:32;4.60;99.90
27619;DHT22;15039;50.830;4.730;2024-03-25T05:00:57;4.70;99.90
27619;DHT22;15039;50.830;4.730;2024-03-25T05:03:23;4.70;99.90
27619;DHT22;15039;50.830;4.730;2024-03-25T05:05:48;4.70;99.90
27619;DHT22;15039;50.830;4.730;2024-03-25T05:08:14;4.70;99.90
27619;DHT22;15039;50.830;4.730;2024-03-25T05:10:39;4.70;99.90
27619;DHT22;15039;50.830;4.730;2024-03-25T05:13:05;4.70;99.90
27619;DHT22;15039;50.830;4.730;2024-03-25T05:15:30;4.70;99.90
27619;DHT22;15039;50.830;4.730;2024-03-25T05:17:56;4.70;99.90
27619;DHT22;15039;50.830;4.730;2024-03-25T05:20:21;4.70;99.90
27619;DHT22;15039;50.830;4.730;2024-03-25T05:22:47;4.60;99.90
27619;DHT22;15039;50.830;4.730;2024-03-25T05:25:12;4.60;99.90
27619;DHT22;15039;50.830;4.730;2024-03-25T05:27:38;4.50;99.90
27619;DHT22;15039;50.830;4.730;2024-03-25T05:30:03;4.50;99.90
27619;DHT22;15039;50.830;4.730;2024-03-25T05:32:29;4.40;99.90
27619;DHT22;15039;50.830;4.730;2024-03-25T05:34:55;4.50;99.90
27619;DHT22;15039;50.830;4.730;2024-03-25T05:37:20;4.40;99.90
27619;DHT22;15039;50.830;4.730;2024-03-25T05:39:46;4.50;99.90
27619;DHT22;15039;50.830;4.730;2024-03-25T05:42:11;4.60;99.90
27619;DHT22;15039;50.830;4.730;2024-03-25T05:44:37;4.50;99.90
27619;DHT22;15039;50.830;4.730;2024-03-25T05:47:02;4.50;99.90
27619;DHT22;15039;50.830;4.730;2024-03-25T05:49:28;4.50;99.90
27619;DHT22;15039;50.830;4.730;2024-03-25T05:51:53;4.50;99.90
27619;DHT22;15039;50.830;4.730;2024-03-25T05:54:19;4.60;99.90
27619;DHT22;15039;50.830;4.730;2024-03-25T05:56:44;4.70;99.90
27619;DHT22;15039;50.830;4.730;2024-03-25T05:59:10;4.70;99.90
27619;DHT22;15039;50.830;4.730;2024-03-25T06:01:35;4.80;99.90
27619;DHT22;15039;50.830;4.730;2024-03-25T06:04:03;4.90;99.90
27619;DHT22;15039;50.830;4.730;2024-03-25T06:06:28;5.00;99.90
27619;DHT22;15039;50.830;4.730;2024-03-25T06:08:54;5.10;99.90
27619;DHT22;15039;50.830;4.730;2024-03-25T06:11:19;5.30;99.90
27619;DHT22;15039;50.830;4.730;2024-03-25T06:13:45;5.30;99.90
27619;DHT22;15039;50.830;4.730;2024-03-25T06:16:12;5.30;99.90
27619;DHT22;15039;50.830;4.730;2024-03-25T06:18:38;5.40;99.90
27619;DHT22;15039;50.830;4.730;2024-03-25T06:21:03;5.50;99.90
27619;DHT22;15039;50.830;4.730;2024-03-25T06:23:29;5.50;99.90
27619;DHT22;15039;50.830;4.730;2024-03-25T06:25:55;5.60;99.90
27619;DHT22;15039;50.830;4.730;2024-03-25T06:28:21;5.60;99.90
27619;DHT22;15039;50.830;4.730;2024-03-25T06:30:46;5.80;99.90
27619;DHT22;15039;50.830;4.730;2024-03-25T06:33:32;5.80;99.90
27619;DHT22;15039;50.830;4.730;2024-03-25T06:36:17;5.90;99.90
27619;DHT22;15039;50.830;4.730;2024-03-25T06:38:43;5.90;99.90
27619;DHT22;15039;50.830;4.730;2024-03-25T06:41:08;5.90;99.90
27619;DHT22;15039;50.830;4.730;2024-03-25T06:43:34;6.00;99.90
27619;DHT22;15039;50.830;4.730;2024-03-25T06:49:00;6.20;99.90
27619;DHT22;15039;50.830;4.730;2024-03-25T06:51:26;6.10;99.90
27619;DHT22;15039;50.830;4.730;2024-03-25T06:53:52;6.20;99.90
27619;DHT22;15039;50.830;4.730;2024-03-25T06:56:18;6.20;99.90
27619;DHT22;15039;50.830;4.730;2024-03-25T06:58:43;6.30;99.90
27619;DHT22;15039;50.830;4.730;2024-03-25T07:01:09;6.40;99.90
27619;DHT22;15039;50.830;4.730;2024-03-25T07:03:37;6.50;99.90
27619;DHT22;15039;50.830;4.730;2024-03-25T07:06:03;6.40;99.90
27619;DHT22;15039;50.830;4.730;2024-03-25T07:08:29;6.40;99.90
27619;DHT22;15039;50.830;4.730;2024-03-25T07:10:58;6.50;99.90
27619;DHT22;15039;50.830;4.730;2024-03-25T07:13:24;6.50;99.90
27619;DHT22;15039;50.830;4.730;2024-03-25T07:15:49;6.60;99.90
27619;DHT22;15039;50.830;4.730;2024-03-25T07:18:15;6.60;99.90
27619;DHT22;15039;50.830;4.730;2024-03-25T07:20:42;6.60;99.90
27619;DHT22;15039;50.830;4.730;2024-03-25T07:23:07;6.70;99.90
27619;DHT22;15039;50.830;4.730;2024-03-25T07:25:33;6.80;99.90
27619;DHT22;15039;50.830;4.730;2024-03-25T07:27:59;6.80;99.90
27619;DHT22;15039;50.830;4.730;2024-03-25T07:30:27;6.80;99.90
27619;DHT22;15039;50.830;4.730;2024-03-25T07:32:57;6.80;99.90
27619;DHT22;15039;50.830;4.730;2024-03-25T07:35:23;6.90;99.90
27619;DHT22;15039;50.830;4.730;2024-03-25T07:37:48;6.90;99.90
27619;DHT22;15039;50.830;4.730;2024-03-25T07:40:20;7.00;99.90
27619;DHT22;15039;50.830;4.730;2024-03-25T07:42:46;7.10;99.90
27619;DHT22;15039;50.830;4.730;2024-03-25T07:45:12;7.20;99.90
27619;DHT22;15039;50.830;4.730;2024-03-25T07:47:37;7.30;99.90
27619;DHT22;15039;50.830;4.730;2024-03-25T07:50:03;7.30;99.90
27619;DHT22;15039;50.830;4.730;2024-03-25T07:52:29;7.40;99.90
27619;DHT22;15039;50.830;4.730;2024-03-25T07:54:55;7.50;99.90
27619;DHT22;15039;50.830;4.730;2024-03-25T07:57:20;7.50;99.90
27619;DHT22;15039;50.830;4.730;2024-03-25T07:59:46;7.60;99.90
27619;DHT22;15039;50.830;4.730;2024-03-25T08:02:12;7.70;99.90
27619;DHT22;15039;50.830;4.730;2024-03-25T08:04:37;7.70;99.90
27619;DHT22;15039;50.830;4.730;2024-03-25T08:07:03;7.80;99.90
27619;DHT22;15039;50.830;4.730;2024-03-25T08:09:29;7.80;99.90
27619;DHT22;15039;50.830;4.730;2024-03-25T08:11:54;7.90;99.90
27619;DHT22;15039;50.830;4.730;2024-03-25T08:14:20;8.00;99.90
27619;DHT22;15039;50.830;4.730;2024-03-25T08:16:45;7.90;99.90
27619;DHT22;15039;50.830;4.730;2024-03-25T08:19:11;8.10;99.90
27619;DHT22;15039;50.830;4.730;2024-03-25T08:21:37;8.10;99.90
27619;DHT22;15039;50.830;4.730;2024-03-25T08:24:02;8.10;99.90
27619;DHT22;15039;50.830;4.730;2024-03-25T08:26:28;8.10;99.90
27619;DHT22;15039;50.830;4.730;2024-03-25T08:28:53;8.20;99.90
27619;DHT22;15039;50.830;4.730;2024-03-25T08:31:19;8.30;99.90
27619;DHT22;15039;50.830;4.730;2024-03-25T08:33:44;8.40;99.90
27619;DHT22;15039;50.830;4.730;2024-03-25T08:36:10;8.50;99.90
27619;DHT22;15039;50.830;4.730;2024-03-25T08:38:35;8.60;99.90
27619;DHT22;15039;50.830;4.730;2024-03-25T08:41:01;8.50;99.90
27619;DHT22;15039;50.830;4.730;2024-03-25T08:43:26;8.60;99.90
27619;DHT22;15039;50.830;4.730;2024-03-25T08:45:52;8.60;99.90
27619;DHT22;15039;50.830;4.730;2024-03-25T08:48:17;8.60;99.90
27619;DHT22;15039;50.830;4.730;2024-03-25T08:50:43;8.70;99.90
27619;DHT22;15039;50.830;4.730;2024-03-25T08:53:08;8.70;99.90
27619;DHT22;15039;50.830;4.730;2024-03-25T08:55:34;8.70;99.90
27619;DHT22;15039;50.830;4.730;2024-03-25T08:57:59;8.70;99.90
27619;DHT22;15039;50.830;4.730;2024-03-25T09:00:25;8.80;99.90
27619;DHT22;15039;50.830;4.730;2024-03-25T09:02:51;8.80;99.90
27619;DHT22;15039;50.830;4.730;2024-03-25T09:05:16;9.00;99.90
27619;DHT22;15039;50.830;4.730;2024-03-25T09:07:49;9.10;99.90
27619;DHT22;15039;50.830;4.730;2024-03-25T09:10:20;9.10;99.90
27619;DHT22;15039;50.830;4.730;2024-03-25T09:13:04;9.20;99.90
27619;DHT22;15039;50.830;4.730;2024-03-25T09:15:30;9.30;99.90
27619;DHT22;15039;50.830;4.730;2024-03-25T09:17:55;9.40;99.90
27619;DHT22;15039;50.830;4.730;2024-03-25T09:20:21;9.60;99.90
27619;DHT22;15039;50.830;4.730;2024-03-25T09:22:46;9.80;99.90
27619;DHT22;15039;50.830;4.730;2024-03-25T09:25:14;9.80;99.90
27619;DHT22;15039;50.830;4.730;2024-03-25T09:27:45;9.90;99.90
27619;DHT22;15039;50.830;4.730;2024-03-25T09:30:11;10.10;99.90
27619;DHT22;15039;50.830;4.730;2024-03-25T09:32:36;10.10;99.90
27619;DHT22;15039;50.830;4.730;2024-03-25T09:35:02;10.10;99.90
27619;DHT22;15039;50.830;4.730;2024-03-25T09:37:30;10.10;99.90
27619;DHT22;15039;50.830;4.730;2024-03-25T09:39:56;10.20;99.90
27619;DHT22;15039;50.830;4.730;2024-03-25T09:42:25;10.20;99.90
27619;DHT22;15039;50.830;4.730;2024-03-25T09:44:55;10.30;99.90
27619;DHT22;15039;50.830;4.730;2024-03-25T09:47:24;10.40;99.90
27619;DHT22;15039;50.830;4.730;2024-03-25T09:49:50;10.40;99.90
27619;DHT22;15039;50.830;4.730;2024-03-25T09:52:18;10.30;99.90
27619;DHT22;15039;50.830;4.730;2024-03-25T09:54:44;10.30;99.90
27619;DHT22;15039;50.830;4.730;2024-03-25T09:57:09;10.40;99.90
27619;DHT22;15039;50.830;4.730;2024-03-25T09:59:35;10.40;99.90
27619;DHT22;15039;50.830;4.730;2024-03-25T10:02:01;10.50;99.90
27619;DHT22;15039;50.830;4.730;2024-03-25T10:04:27;10.50;99.90
27619;DHT22;15039;50.830;4.730;2024-03-25T10:06:52;10.50;99.90
27619;DHT22;15039;50.830;4.730;2024-03-25T10:09:19;10.70;99.90
27619;DHT22;15039;50.830;4.730;2024-03-25T10:11:46;10.70;99.90
27619;DHT22;15039;50.830;4.730;2024-03-25T10:14:12;10.80;99.90
27619;DHT22;15039;50.830;4.730;2024-03-25T10:16:37;10.90;99.90
27619;DHT22;15039;50.830;4.730;2024-03-25T10:19:03;10.90;99.90
27619;DHT22;15039;50.830;4.730;2024-03-25T10:21:30;10.90;99.90
27619;DHT22;15039;50.830;4.730;2024-03-25T10:23:57;11.00;99.90
27619;DHT22;15039;50.830;4.730;2024-03-25T10:26:26;11.20;99.90
27619;DHT22;15039;50.830;4.730;2024-03-25T10:28:59;11.20;99.90
27619;DHT22;15039;50.830;4.730;2024-03-25T10:31:26;11.30;99.90
27619;DHT22;15039;50.830;4.730;2024-03-25T10:33:51;11.50;99.90
27619;DHT22;15039;50.830;4.730;2024-03-25T10:36:19;11.60;99.90
27619;DHT22;15039;50.830;4.730;2024-03-25T10:38:45;11.60;99.90
27619;DHT22;15039;50.830;4.730;2024-03-25T10:41:11;11.60;99.90
27619;DHT22;15039;50.830;4.730;2024-03-25T10:43:40;11.70;99.90
27619;DHT22;15039;50.830;4.730;2024-03-25T10:46:06;11.90;99.90
27619;DHT22;15039;50.830;4.730;2024-03-25T10:48:33;11.90;99.90
27619;DHT22;15039;50.830;4.730;2024-03-25T10:51:00;11.90;99.90
27619;DHT22;15039;50.830;4.730;2024-03-25T10:53:28;11.90;99.90
27619;DHT22;15039;50.830;4.730;2024-03-25T10:55:54;11.90;99.90
27619;DHT22;15039;50.830;4.730;2024-03-25T10:58:23;12.10;99.90
27619;DHT22;15039;50.830;4.730;2024-03-25T11:00:50;12.20;99.90
27619;DHT22;15039;50.830;4.730;2024-03-25T11:03:17;12.40;99.90
27619;DHT22;15039;50.830;4.730;2024-03-25T11:05:42;12.50;99.90
27619;DHT22;15039;50.830;4.730;2024-03-25T11:08:11;12.60;99.90
27619;DHT22;15039;50.830;4.730;2024-03-25T11:10:45;12.70;99.90
27619;DHT22;15039;50.830;4.730;2024-03-25T11:13:18;12.80;99.90
27619;DHT22;15039;50.830;4.730;2024-03-25T11:15:44;12.90;99.90
27619;DHT22;15039;50.830;4.730;2024-03-25T11:18:13;12.90;99.90
27619;DHT22;15039;50.830;4.730;2024-03-25T11:20:39;12.90;99.90
27619;DHT22;15039;50.830;4.730;2024-03-25T11:23:08;13.00;99.90
27619;DHT22;15039;50.830;4.730;2024-03-25T11:25:33;13.00;99.90
27619;DHT22;15039;50.830;4.730;2024-03-25T11:27:59;12.90;99.90
27619;DHT22;15039;50.830;4.730;2024-03-25T11:30:24;12.90;99.90
27619;DHT22;15039;50.830;4.730;2024-03-25T11:32:53;13.00;99.90
27619;DHT22;15039;50.830;4.730;2024-03-25T11:35:18;12.90;99.90
27619;DHT22;15039;50.830;4.730;2024-03-25T11:37:44;12.90;99.90
27619;DHT22;15039;50.830;4.730;2024-03-25T11:40:10;12.90;99.90
27619;DHT22;15039;50.830;4.730;2024-03-25T11:42:38;13.10;99.90
27619;DHT22;15039;50.830;4.730;2024-03-25T11:45:04;13.20;99.90
27619;DHT22;15039;50.830;4.730;2024-03-25T11:47:30;13.20;99.90
27619;DHT22;15039;50.830;4.730;2024-03-25T11:49:56;13.20;99.90
27619;DHT22;15039;50.830;4.730;2024-03-25T11:52:21;13.30;99.90
27619;DHT22;15039;50.830;4.730;2024-03-25T11:54:56;13.40;99.90
27619;DHT22;15039;50.830;4.730;2024-03-25T11:57:24;13.50;99.90
27619;DHT22;15039;50.830;4.730;2024-03-25T11:59:50;13.60;99.90
27619;DHT22;15039;50.830;4.730;2024-03-25T12:02:15;13.50;99.90
27619;DHT22;15039;50.830;4.730;2024-03-25T12:04:44;13.50;99.90
27619;DHT22;15039;50.830;4.730;2024-03-25T12:07:11;13.40;99.90
27619;DHT22;15039;50.830;4.730;2024-03-25T12:09:38;13.30;99.90
27619;DHT22;15039;50.830;4.730;2024-03-25T12:12:22;13.30;99.90
27619;DHT22;15039;50.830;4.730;2024-03-25T12:14:48;13.60;99.90
27619;DHT22;15039;50.830;4.730;2024-03-25T12:17:14;13.80;99.90
27619;DHT22;15039;50.830;4.730;2024-03-25T12:19:40;13.80;99.90
27619;DHT22;15039;50.830;4.730;2024-03-25T12:22:07;13.90;99.90
27619;DHT22;15039;50.830;4.730;2024-03-25T12:24:33;14.00;99.90
27619;DHT22;15039;50.830;4.730;2024-03-25T12:26:59;14.10;99.90
27619;DHT22;15039;50.830;4.730;2024-03-25T12:29:25;14.20;99.90
27619;DHT22;15039;50.830;4.730;2024-03-25T12:31:56;14.10;99.90
27619;DHT22;15039;50.830;4.730;2024-03-25T12:34:22;13.80;99.90
27619;DHT22;15039;50.830;4.730;2024-03-25T12:36:48;13.70;99.90
27619;DHT22;15039;50.830;4.730;2024-03-25T12:39:20;13.60;99.90
27619;DHT22;15039;50.830;4.730;2024-03-25T12:42:06;13.70;99.90
27619;DHT22;15039;50.830;4.730;2024-03-25T12:44:32;13.70;99.90
27619;DHT22;15039;50.830;4.730;2024-03-25T12:46:57;13.70;99.90
27619;DHT22;15039;50.830;4.730;2024-03-25T12:49:24;13.60;99.90
27619;DHT22;15039;50.830;4.730;2024-03-25T12:51:49;13.50;99.90
27619;DHT22;15039;50.830;4.730;2024-03-25T12:54:15;13.50;99.90
27619;DHT22;15039;50.830;4.730;2024-03-25T12:56:40;13.50;99.90
27619;DHT22;15039;50.830;4.730;2024-03-25T12:59:08;13.70;99.90
27619;DHT22;15039;50.830;4.730;2024-03-25T13:01:33;14.00;99.90
27619;DHT22;15039;50.830;4.730;2024-03-25T13:03:59;14.20;99.90
27619;DHT22;15039;50.830;4.730;2024-03-25T13:06:24;14.30;99.90
27619;DHT22;15039;50.830;4.730;2024-03-25T13:08:50;14.40;99.90
27619;DHT22;15039;50.830;4.730;2024-03-25T13:11:15;14.50;99.90
27619;DHT22;15039;50.830;4.730;2024-03-25T13:13:41;14.50;99.90
27619;DHT22;15039;50.830;4.730;2024-03-25T13:16:06;14.40;99.90
27619;DHT22;15039;50.830;4.730;2024-03-25T13:18:33;14.40;99.90
27619;DHT22;15039;50.830;4.730;2024-03-25T13:20:58;14.20;99.90
27619;DHT22;15039;50.830;4.730;2024-03-25T13:23:24;14.20;99.90
27619;DHT22;15039;50.830;4.730;2024-03-25T13:25:50;14.20;99.90
27619;DHT22;15039;50.830;4.730;2024-03-25T13:28:15;14.10;99.90
27619;DHT22;15039;50.830;4.730;2024-03-25T13:30:41;14.20;99.90
27619;DHT22;15039;50.830;4.730;2024-03-25T13:33:06;14.20;99.90
27619;DHT22;15039;50.830;4.730;2024-03-25T13:35:32;14.20;99.90
27619;DHT22;15039;50.830;4.730;2024-03-25T13:37:57;14.20;99.90
27619;DHT22;15039;50.830;4.730;2024-03-25T13:40:23;14.30;99.90
27619;DHT22;15039;50.830;4.730;2024-03-25T13:42:48;14.50;99.90
27619;DHT22;15039;50.830;4.730;2024-03-25T13:45:14;14.50;99.90
27619;DHT22;15039;50.830;4.730;2024-03-25T13:47:39;14.50;99.90
27619;DHT22;15039;50.830;4.730;2024-03-25T13:50:06;14.50;99.90
27619;DHT22;15039;50.830;4.730;2024-03-25T13:52:36;14.60;99.90
27619;DHT22;15039;50.830;4.730;2024-03-25T13:55:02;14.70;99.90
27619;DHT22;15039;50.830;4.730;2024-03-25T13:57:27;14.70;99.90
27619;DHT22;15039;50.830;4.730;2024-03-25T13:59:53;14.80;99.90
27619;DHT22;15039;50.830;4.730;2024-03-25T14:02:19;14.70;99.90
27619;DHT22;15039;50.830;4.730;2024-03-25T14:04:44;14.70;99.90
27619;DHT22;15039;50.830;4.730;2024-03-25T14:07:11;14.70;99.90
27619;DHT22;15039;50.830;4.730;2024-03-25T14:09:36;14.60;99.90
27619;DHT22;15039;50.830;4.730;2024-03-25T14:12:02;14.70;99.90
27619;DHT22;15039;50.830;4.730;2024-03-25T14:14:29;14.70;99.90
27619;DHT22;15039;50.830;4.730;2024-03-25T14:16:54;14.80;99.90
27619;DHT22;15039;50.830;4.730;2024-03-25T14:19:20;14.70;99.90
27619;DHT22;15039;50.830;4.730;2024-03-25T14:21:47;14.70;99.90
27619;DHT22;15039;50.830;4.730;2024-03-25T14:24:13;14.60;99.90
27619;DHT22;15039;50.830;4.730;2024-03-25T14:26:39;14.50;99.90
27619;DHT22;15039;50.830;4.730;2024-03-25T14:29:04;14.60;99.90
27619;DHT22;15039;50.830;4.730;2024-03-25T14:31:30;14.50;99.90
27619;DHT22;15039;50.830;4.730;2024-03-25T14:33:55;14.40;99.90
27619;DHT22;15039;50.830;4.730;2024-03-25T14:36:21;14.40;99.90
27619;DHT22;15039;50.830;4.730;2024-03-25T14:38:48;14.40;99.90
27619;DHT22;15039;50.830;4.730;2024-03-25T14:41:17;14.40;99.90
27619;DHT22;15039;50.830;4.730;2024-03-25T14:43:43;14.50;99.90
27619;DHT22;15039;50.830;4.730;2024-03-25T14:46:09;14.60;99.90
27619;DHT22;15039;50.830;4.730;2024-03-25T14:48:34;14.60;99.90
27619;DHT22;15039;50.830;4.730;2024-03-25T14:51:00;14.70;99.90
27619;DHT22;15039;50.830;4.730;2024-03-25T14:53:25;14.70;99.90
27619;DHT22;15039;50.830;4.730;2024-03-25T14:55:51;14.60;99.90
27619;DHT22;15039;50.830;4.730;2024-03-25T14:58:17;14.60;99.90
27619;DHT22;15039;50.830;4.730;2024-03-25T15:00:42;14.60;99.90
27619;DHT22;15039;50.830;4.730;2024-03-25T15:03:08;14.70;99.90
27619;DHT22;15039;50.830;4.730;2024-03-25T15:05:35;14.60;99.90
27619;DHT22;15039;50.830;4.730;2024-03-25T15:08:00;14.60;99.90
27619;DHT22;15039;50.830;4.730;2024-03-25T15:10:26;14.60;99.90
27619;DHT22;15039;50.830;4.730;2024-03-25T15:12:51;14.60;99.90
27619;DHT22;15039;50.830;4.730;2024-03-25T15:15:17;14.70;99.90
27619;DHT22;15039;50.830;4.730;2024-03-25T15:17:43;14.50;99.90
27619;DHT22;15039;50.830;4.730;2024-03-25T15:20:09;14.50;99.90
27619;DHT22;15039;50.830;4.730;2024-03-25T15:22:34;14.40;99.90
27619;DHT22;15039;50.830;4.730;2024-03-25T15:25:00;14.40;99.90
27619;DHT22;15039;50.830;4.730;2024-03-25T15:27:25;14.30;99.90
27619;DHT22;15039;50.830;4.730;2024-03-25T15:29:51;14.30;99.90
27619;DHT22;15039;50.830;4.730;2024-03-25T15:32:16;14.10;99.90
27619;DHT22;15039;50.830;4.730;2024-03-25T15:34:42;14.10;99.90
27619;DHT22;15039;50.830;4.730;2024-03-25T15:37:07;13.90;99.90
27619;DHT22;15039;50.830;4.730;2024-03-25T15:39:35;13.80;99.90
27619;DHT22;15039;50.830;4.730;2024-03-25T15:42:00;13.80;99.90
27619;DHT22;15039;50.830;4.730;2024-03-25T15:44:26;13.80;99.90
27619;DHT22;15039;50.830;4.730;2024-03-25T15:46:51;13.90;99.90
27619;DHT22;15039;50.830;4.730;2024-03-25T15:49:17;13.90;99.90